createdAt,value
2019-02-04T00:00:41.114Z,100363.64
2019-02-04T00:03:12.799Z,100361.53
2019-02-04T00:05:43.107Z,100358.54
2019-02-04T00:08:13.610Z,100360.38
2019-02-04T00:10:45.768Z,100361.02
2019-02-04T00:13:17.002Z,100363.64
2019-02-04T00:15:47.623Z,100362.89
2019-02-04T00:18:18.179Z,100363.18
2019-02-04T00:20:48.476Z,100358.77
2019-02-04T00:23:22.567Z,100371.70
2019-02-04T00:25:53.102Z,100367.38
2019-02-04T00:28:23.439Z,100374.26
2019-02-04T00:30:53.878Z,100375.02
2019-02-04T00:33:24.779Z,100378.61
2019-02-04T00:35:56.031Z,100385.33
2019-02-04T00:38:28.857Z,100389.08
2019-02-04T00:40:59.645Z,100392.27
2019-02-04T00:43:29.879Z,100395.48
2019-02-04T00:46:00.423Z,100390.66
2019-02-04T00:48:31.513Z,100388.55
2019-02-04T00:51:02.139Z,100390.91
2019-02-04T00:53:35.330Z,100399.06
2019-02-04T00:56:06.429Z,100400.48
2019-02-04T00:58:36.683Z,100406.28
2019-02-04T01:01:10.177Z,100407.58
2019-02-04T01:03:41.049Z,100319.53
2019-02-04T01:06:12.897Z,100418.98
2019-02-04T01:08:43.371Z,100418.16
2019-02-04T01:11:14.262Z,100424.63
2019-02-04T01:13:44.506Z,100332.14
2019-02-04T01:16:14.672Z,100425.15
2019-02-04T01:18:44.898Z,100426.44
2019-02-04T01:21:14.840Z,100434.94
2019-02-04T01:23:44.901Z,100437.53
2019-02-04T01:26:15.793Z,100432.36
2019-02-04T01:28:45.799Z,100435.77
2019-02-04T01:31:17.191Z,100439.95
2019-02-04T01:33:47.359Z,100442.55
2019-02-04T01:36:17.760Z,100448.69
2019-02-04T01:38:47.728Z,100450.22
2019-02-04T01:41:18.049Z,100445.64
2019-02-04T01:43:47.858Z,100442.40
2019-02-04T01:46:18.405Z,100439.23
2019-02-04T01:48:48.623Z,100452.00
2019-02-04T01:51:18.519Z,100446.21
2019-02-04T01:53:48.848Z,100438.94
2019-02-04T01:56:19.275Z,100447.86
2019-02-04T01:58:49.146Z,100447.38
2019-02-04T02:01:18.989Z,100447.19
2019-02-04T02:03:49.651Z,100455.18
2019-02-04T02:06:20.058Z,100460.00
2019-02-04T02:08:49.898Z,100470.72
2019-02-04T02:11:20.444Z,100469.00
2019-02-04T02:13:50.276Z,100472.05
2019-02-04T02:16:20.420Z,100469.98
2019-02-04T02:18:50.602Z,100466.11
2019-02-04T02:21:20.684Z,100470.45
2019-02-04T02:23:50.523Z,100477.89
2019-02-04T02:26:20.459Z,100484.94
2019-02-04T02:28:50.324Z,100495.17
2019-02-04T02:31:20.438Z,100494.27
2019-02-04T02:33:50.523Z,100494.03
2019-02-04T02:36:20.435Z,100501.75
2019-02-04T02:38:51.265Z,100502.45
2019-02-04T02:41:21.351Z,100514.34
2019-02-04T02:43:51.192Z,100422.27
2019-02-04T02:46:21.390Z,100517.39
2019-02-04T02:48:51.324Z,100513.88
2019-02-04T02:51:22.433Z,100517.75
2019-02-04T02:53:52.349Z,100520.21
2019-02-04T02:56:22.200Z,100519.98
2019-02-04T02:58:52.233Z,100531.45
2019-02-04T03:01:22.793Z,100530.30
2019-02-04T03:03:52.831Z,100529.22
2019-02-04T03:06:23.044Z,100533.33
2019-02-04T03:08:52.829Z,100533.68
2019-02-04T03:11:22.874Z,100542.09
2019-02-04T03:13:52.672Z,100544.83
2019-02-04T03:16:22.936Z,100545.06
2019-02-04T03:18:53.090Z,100545.33
2019-02-04T03:21:22.951Z,100454.92
2019-02-04T03:23:53.385Z,100556.47
2019-02-04T03:26:23.964Z,100557.45
2019-02-04T03:28:53.980Z,100560.34
2019-02-04T03:31:24.337Z,100569.27
2019-02-04T03:33:54.304Z,100578.08
2019-02-04T03:36:24.142Z,100582.77
2019-02-04T03:38:54.588Z,100585.59
2019-02-04T03:41:25.087Z,100585.49
2019-02-04T03:43:57.218Z,100489.48
2019-02-04T03:46:27.124Z,100572.84
2019-02-04T03:48:57.030Z,100584.20
2019-02-04T03:51:27.219Z,100585.87
2019-02-04T03:53:57.402Z,100582.32
2019-02-04T03:56:27.527Z,100577.30
2019-02-04T03:58:57.580Z,100581.50
2019-02-04T04:01:27.671Z,100580.00
2019-02-04T04:03:57.608Z,100577.53
2019-02-04T04:06:27.440Z,100576.64
2019-02-04T04:08:57.620Z,100572.28
2019-02-04T04:11:27.540Z,100566.64
2019-02-04T04:13:57.818Z,100568.63
2019-02-04T04:16:27.845Z,100566.88
2019-02-04T04:18:57.682Z,100571.66
2019-02-04T04:21:29.225Z,100568.41
2019-02-04T04:23:59.306Z,100580.95
2019-02-04T04:26:29.422Z,100589.43
2019-02-04T04:28:59.571Z,100604.79
2019-02-04T04:31:29.505Z,100598.97
2019-02-04T04:33:59.713Z,100599.29
2019-02-04T04:36:29.625Z,100617.13
2019-02-04T04:38:59.593Z,100621.94
2019-02-04T04:41:29.719Z,100621.83
2019-02-04T04:43:59.617Z,100619.71
2019-02-04T04:46:29.620Z,100617.94
2019-02-04T04:49:00.151Z,100626.50
2019-02-04T04:51:30.104Z,100626.84
2019-02-04T04:53:59.883Z,100618.74
2019-02-04T04:56:29.772Z,100626.13
2019-02-04T04:58:59.648Z,100623.45
2019-02-04T05:01:29.921Z,100627.42
2019-02-04T05:04:00.791Z,100634.33
2019-02-04T05:06:30.806Z,100629.86
2019-02-04T05:09:02.132Z,100627.48
2019-02-04T05:11:39.304Z,100617.41
2019-02-04T05:14:09.891Z,100620.81
2019-02-04T05:16:40.703Z,100531.72
2019-02-04T05:19:10.665Z,100620.81
2019-02-04T05:21:41.114Z,100625.52
2019-02-04T05:24:11.224Z,100585.34
2019-02-04T05:26:41.282Z,100621.62
2019-02-04T05:29:11.116Z,100627.20
2019-02-04T05:31:41.456Z,100630.83
2019-02-04T05:34:11.374Z,100625.38
2019-02-04T05:36:41.395Z,100628.39
2019-02-04T05:39:11.593Z,100628.98
2019-02-04T05:41:43.047Z,100629.31
2019-02-04T05:44:12.946Z,100631.62
2019-02-04T05:46:43.514Z,100632.06
2019-02-04T05:49:13.535Z,100630.27
2019-02-04T05:51:43.564Z,100632.03
2019-02-04T05:54:14.105Z,100639.31
2019-02-04T05:56:44.384Z,100633.95
2019-02-04T05:59:14.394Z,100638.34
2019-02-04T06:01:44.516Z,100549.50
2019-02-04T06:04:14.439Z,100640.39
2019-02-04T06:06:44.994Z,100541.92
2019-02-04T06:09:14.855Z,100630.13
2019-02-04T06:11:45.051Z,100626.05
2019-02-04T06:14:15.466Z,100630.28
2019-02-04T06:16:46.457Z,100629.81
2019-02-04T06:19:16.514Z,100632.44
2019-02-04T06:21:47.531Z,100624.52
2019-02-04T06:24:18.790Z,100627.92
2019-02-04T06:26:49.955Z,100635.06
2019-02-04T06:29:20.500Z,100559.88
2019-02-04T06:31:52.358Z,100648.14
2019-02-04T06:36:51.923Z,100657.66
2019-02-04T06:39:22.099Z,100658.10
2019-02-04T06:41:52.475Z,100664.88
2019-02-04T06:44:25.848Z,100577.46
2019-02-04T06:46:56.158Z,100663.03
2019-02-04T06:49:26.455Z,100667.45
2019-02-04T06:51:56.716Z,100667.87
2019-02-04T06:54:26.934Z,100673.16
2019-02-04T06:56:56.920Z,100674.13
2019-02-04T06:59:26.885Z,100685.05
2019-02-04T07:01:57.878Z,100682.26
2019-02-04T07:06:59.341Z,100693.67
2019-02-04T07:09:30.138Z,100694.14
2019-02-04T07:12:00.624Z,100700.25
2019-02-04T07:14:31.822Z,100702.83
2019-02-04T07:17:03.943Z,100707.17
2019-02-04T07:19:34.749Z,100614.16
2019-02-04T07:22:05.739Z,100706.03
2019-02-04T07:24:42.927Z,100704.03
2019-02-04T07:27:08.875Z,100713.43
2019-02-04T07:29:38.803Z,100722.21
2019-02-04T07:32:08.792Z,100718.24
2019-02-04T07:34:39.092Z,100712.72
2019-02-04T07:37:09.530Z,100718.00
2019-02-04T07:39:39.772Z,100718.84
2019-02-04T07:42:10.227Z,100720.47
2019-02-04T07:44:40.907Z,100718.59
2019-02-04T07:47:12.719Z,100716.22
2019-02-04T07:49:42.807Z,100716.58
2019-02-04T07:52:12.799Z,100717.05
2019-02-04T07:54:43.051Z,100713.98
2019-02-04T07:57:14.243Z,100714.50
2019-02-04T07:59:44.481Z,100712.63
2019-02-04T08:02:17.034Z,100708.73
2019-02-04T08:04:48.926Z,100703.05
2019-02-04T08:07:19.676Z,100699.50
2019-02-04T08:09:50.213Z,100694.86
2019-02-04T08:12:21.492Z,100697.33
2019-02-04T08:14:51.736Z,100690.28
2019-02-04T08:17:21.718Z,100700.97
2019-02-04T08:19:56.851Z,100697.68
2019-02-04T08:22:27.107Z,100699.45
2019-02-04T08:24:57.705Z,100695.98
2019-02-04T08:27:28.141Z,100691.36
2019-02-04T08:29:59.861Z,100692.62
2019-02-04T08:32:30.073Z,100701.40
2019-02-04T08:35:00.568Z,100696.30
2019-02-04T08:37:30.918Z,100695.56
2019-02-04T08:40:01.925Z,100699.41
2019-02-04T08:42:35.374Z,100704.11
2019-02-04T08:45:05.177Z,100697.99
2019-02-04T08:47:35.370Z,100707.87
2019-02-04T08:50:09.697Z,100699.41
2019-02-04T08:52:39.791Z,100692.17
2019-02-04T08:55:10.401Z,100692.55
2019-02-04T08:57:40.681Z,100693.80
2019-02-04T09:00:14.473Z,100697.21
2019-02-04T09:02:45.126Z,100701.00
2019-02-04T09:05:16.767Z,100700.57
2019-02-04T09:07:46.952Z,100690.98
2019-02-04T09:10:19.943Z,100692.22
2019-02-04T09:12:52.270Z,100696.23
2019-02-04T09:15:22.692Z,100692.52
2019-02-04T09:17:53.299Z,100692.98
2019-02-04T09:20:24.783Z,100696.19
2019-02-04T09:22:55.474Z,100688.94
2019-02-04T09:25:26.527Z,100690.41
2019-02-04T09:27:57.047Z,100680.41
2019-02-04T09:30:28.420Z,100601.00
2019-02-04T09:32:59.701Z,100681.98
2019-02-04T09:35:29.992Z,100692.55
2019-02-04T09:38:00.938Z,100681.02
2019-02-04T09:40:40.494Z,100692.98
2019-02-04T09:43:12.925Z,100694.11
2019-02-04T09:45:45.380Z,100688.95
2019-02-04T09:48:19.072Z,100687.25
2019-02-04T09:50:51.704Z,100685.13
2019-02-04T09:53:22.453Z,100679.88
2019-02-04T09:55:52.760Z,100685.33
2019-02-04T09:58:23.131Z,100682.44
2019-02-04T10:00:55.455Z,100677.31
2019-02-04T10:03:27.579Z,100684.20
2019-02-04T10:06:01.500Z,100676.94
2019-02-04T10:08:32.908Z,100673.31
2019-02-04T10:11:02.972Z,100680.93
2019-02-04T10:13:36.136Z,100675.59
2019-02-04T10:16:07.855Z,100676.89
2019-02-04T10:18:38.318Z,100674.80
2019-02-04T10:21:10.582Z,100673.79
2019-02-04T10:23:40.519Z,100670.62
2019-02-04T10:26:12.313Z,100670.48
2019-02-04T10:28:42.813Z,100662.48
2019-02-04T10:31:13.231Z,100666.52
2019-02-04T10:33:43.813Z,100658.16
2019-02-04T10:36:15.680Z,100653.33
2019-02-04T10:38:47.013Z,100654.09
2019-02-04T10:41:17.432Z,100646.31
2019-02-04T10:43:47.520Z,100646.45
2019-02-04T10:46:18.226Z,100649.16
2019-02-04T10:48:48.762Z,100653.02
2019-02-04T10:51:19.309Z,100648.61
2019-02-04T10:53:50.128Z,100642.55
2019-02-04T10:56:23.780Z,100647.80
2019-02-04T10:58:58.664Z,100649.19
2019-02-04T11:01:30.209Z,100637.86
2019-02-04T11:04:00.718Z,100627.11
2019-02-04T11:06:31.156Z,100623.68
2019-02-04T11:09:09.292Z,100624.88
2019-02-04T11:11:40.709Z,100618.04
2019-02-04T11:14:11.249Z,100619.39
2019-02-04T11:16:43.670Z,100616.31
2019-02-04T11:19:18.424Z,100621.04
2019-02-04T11:21:48.419Z,100617.91
2019-02-04T11:24:19.116Z,100624.02
2019-02-04T11:26:49.031Z,100632.51
2019-02-04T11:29:22.283Z,100632.51
2019-02-04T11:31:52.927Z,100616.72
2019-02-04T11:34:23.271Z,100614.81
2019-02-04T11:36:54.119Z,100621.66
2019-02-04T11:39:24.991Z,100621.66
2019-02-04T11:41:58.610Z,100611.38
2019-02-04T11:44:30.310Z,100595.58
2019-02-04T11:47:02.409Z,100606.52
2019-02-04T11:49:33.801Z,100585.02
2019-02-04T11:52:06.928Z,100585.02
2019-02-04T11:54:38.496Z,100595.78
2019-02-04T11:57:08.794Z,100595.78
2019-02-04T11:59:39.890Z,100581.91
2019-02-04T12:02:11.027Z,100581.91
2019-02-04T12:04:41.422Z,100582.07
2019-02-04T12:07:12.122Z,100582.07
2019-02-04T12:09:42.194Z,100581.41
2019-02-04T12:12:13.082Z,100581.41
2019-02-04T12:14:43.450Z,100582.56
2019-02-04T12:17:13.604Z,100567.05
2019-02-04T12:19:44.090Z,100567.05
2019-02-04T12:22:14.993Z,100578.77
2019-02-04T12:24:53.033Z,100575.19
2019-02-04T12:27:31.900Z,100566.69
2019-02-04T12:29:57.553Z,100566.69
2019-02-04T12:32:29.175Z,100562.93
2019-02-04T12:35:00.371Z,100564.73
2019-02-04T12:37:32.501Z,100557.05
2019-02-04T12:40:05.838Z,100549.94
2019-02-04T12:42:36.574Z,100561.20
2019-02-04T12:45:09.639Z,100563.46
2019-02-04T12:47:40.031Z,100561.83
2019-02-04T12:50:10.794Z,100555.63
2019-02-04T12:52:40.914Z,100550.11
2019-02-04T12:55:13.807Z,100548.29
2019-02-04T12:57:44.415Z,100531.47
2019-02-04T13:00:17.893Z,100533.08
2019-02-04T13:02:48.705Z,100533.17
2019-02-04T13:05:37.875Z,100498.95
2019-02-04T13:08:10.001Z,100523.99
2019-02-04T13:10:40.896Z,100524.95
2019-02-04T13:13:14.179Z,100518.58
2019-02-04T13:15:44.609Z,100528.72
2019-02-04T13:18:16.039Z,100526.66
2019-02-04T13:20:48.258Z,100525.81
2019-02-04T13:23:21.321Z,100519.88
2019-02-04T13:25:54.321Z,100518.44
2019-02-04T13:28:36.688Z,100514.39
2019-02-04T13:31:07.110Z,100510.42
2019-02-04T13:33:39.190Z,100520.28
2019-02-04T13:36:13.111Z,100516.06
2019-02-04T13:38:44.497Z,100519.35
2019-02-04T13:41:15.142Z,100514.47
2019-02-04T13:43:47.559Z,100515.64
2019-02-04T13:46:17.831Z,100509.29
2019-02-04T13:48:48.848Z,100516.14
2019-02-04T13:51:19.023Z,100507.31
2019-02-04T13:53:49.130Z,100509.07
2019-02-04T13:56:20.521Z,100512.38
2019-02-04T13:58:51.424Z,100516.66
2019-02-04T14:01:22.112Z,100527.45
2019-02-04T14:03:52.358Z,100527.41
2019-02-04T14:06:22.625Z,100529.06
2019-02-04T14:08:53.083Z,100523.03
2019-02-04T14:11:26.670Z,100523.05
2019-02-04T14:13:57.220Z,100527.95
2019-02-04T14:16:31.642Z,100513.77
2019-02-04T14:19:06.603Z,100520.14
2019-02-04T14:21:39.617Z,100520.14
2019-02-04T14:24:10.242Z,100503.97
2019-02-04T14:26:44.787Z,100505.63
2019-02-04T14:29:26.620Z,100505.63
2019-02-04T14:31:56.919Z,100512.63
2019-02-04T14:34:34.691Z,100512.63
2019-02-04T14:37:06.311Z,100432.98
2019-02-04T14:39:36.872Z,100505.64
2019-02-04T14:42:11.174Z,100501.90
2019-02-04T14:44:55.835Z,100501.90
2019-02-04T14:47:34.328Z,100507.93
2019-02-04T14:51:00.827Z,100501.23
2019-02-04T14:53:54.404Z,100429.57
2019-02-04T14:57:07.422Z,100429.57
2019-02-04T15:00:04.566Z,100506.78
2019-02-04T15:02:51.450Z,100506.78
2019-02-04T15:05:35.060Z,100502.86
2019-02-04T15:08:37.600Z,100502.86
2019-02-04T15:11:35.244Z,100497.00
2019-02-04T15:14:41.133Z,100488.21
2019-02-04T15:17:24.800Z,100488.21
2019-02-04T15:20:21.052Z,100483.00
2019-02-04T15:23:26.400Z,100481.37
2019-02-04T15:26:44.870Z,100481.37
2019-02-04T15:29:20.349Z,100476.62
2019-02-04T15:32:23.104Z,100482.30
2019-02-04T15:35:33.744Z,100484.88
2019-02-04T15:38:25.549Z,100486.00
2019-02-04T15:41:10.142Z,100482.98
2019-02-04T15:44:42.906Z,100497.58
2019-02-04T15:47:28.864Z,100485.30
2019-02-04T15:50:14.927Z,100487.55
2019-02-04T15:52:48.858Z,100490.16
2019-02-04T15:55:23.286Z,100490.11
2019-02-04T15:57:54.500Z,100488.80
2019-02-04T16:00:25.424Z,100483.41
2019-02-04T16:02:56.558Z,100490.33
2019-02-04T16:05:29.135Z,100483.46
2019-02-04T16:07:59.412Z,100477.91
2019-02-04T16:10:39.537Z,100472.98
2019-02-04T16:13:15.998Z,100472.92
2019-02-04T16:15:47.944Z,100393.06
2019-02-04T16:18:24.853Z,100486.74
2019-02-04T16:21:03.264Z,100478.88
2019-02-04T16:23:40.271Z,100481.92
2019-02-04T16:26:15.131Z,100485.74
2019-02-04T16:28:45.642Z,100478.06
2019-02-04T16:31:21.843Z,100483.94
2019-02-04T16:33:55.160Z,100484.73
2019-02-04T16:36:27.243Z,100481.45
2019-02-04T16:39:02.124Z,100482.36
2019-02-04T16:41:59.637Z,100486.26
2019-02-04T16:44:40.593Z,100480.89
2019-02-04T16:47:15.642Z,100481.85
2019-02-04T16:49:46.653Z,100468.02
2019-02-04T16:52:17.582Z,100472.39
2019-02-04T16:54:49.779Z,100470.93
2019-02-04T16:57:20.886Z,100466.84
2019-02-04T16:59:56.484Z,100473.16
2019-02-04T17:02:29.830Z,100472.82
2019-02-04T17:05:00.928Z,100471.80
2019-02-04T17:07:35.127Z,100467.73
2019-02-04T17:10:10.142Z,100471.52
2019-02-04T17:12:43.339Z,100468.24
2019-02-04T17:15:16.441Z,100461.41
2019-02-04T17:17:57.835Z,100458.81
2019-02-04T17:20:38.261Z,100329.69
2019-02-04T17:23:22.501Z,100461.41
2019-02-04T17:26:39.961Z,100456.22
2019-02-04T17:29:12.286Z,100460.59
2019-02-04T17:31:43.122Z,100459.64
2019-02-04T17:34:15.288Z,100456.36
2019-02-04T17:37:11.768Z,100454.59
2019-02-04T17:39:47.706Z,100453.01
2019-02-04T17:42:22.519Z,100453.17
2019-02-04T17:45:04.340Z,100449.14
2019-02-04T17:48:08.231Z,100458.23
2019-02-04T17:50:39.281Z,100462.18
2019-02-04T17:53:20.012Z,100459.61
2019-02-04T17:55:53.832Z,100466.95
2019-02-04T17:58:33.955Z,100466.47
2019-02-04T18:01:07.669Z,100473.16
2019-02-04T18:03:43.465Z,100475.92
2019-02-04T18:06:21.404Z,100475.59
2019-02-04T18:08:52.915Z,100480.47
2019-02-04T18:11:25.758Z,100477.48
2019-02-04T18:13:56.287Z,100477.20
2019-02-04T18:16:26.594Z,100479.68
2019-02-04T18:18:56.814Z,100481.00
2019-02-04T18:21:26.898Z,100473.41
2019-02-04T18:23:57.776Z,100479.77
2019-02-04T18:26:29.497Z,100478.41
2019-02-04T18:29:00.567Z,100480.19
2019-02-04T18:31:34.120Z,100479.37
2019-02-04T18:34:05.830Z,100475.56
2019-02-04T18:36:39.863Z,100479.94
2019-02-04T18:39:14.908Z,100484.17
2019-02-04T18:41:50.337Z,100482.88
2019-02-04T18:44:21.845Z,100477.81
2019-02-04T18:46:54.540Z,100469.69
2019-02-04T18:49:27.074Z,100469.52
2019-02-04T18:52:00.580Z,100473.41
2019-02-04T18:54:32.704Z,100478.13
2019-02-04T18:57:05.317Z,100481.85
2019-02-04T18:59:36.232Z,100476.63
2019-02-04T19:02:09.957Z,100477.25
2019-02-04T19:04:45.238Z,100472.37
2019-02-04T19:07:17.778Z,100469.06
2019-02-04T19:09:49.554Z,100460.37
2019-02-04T19:12:24.285Z,100467.36
2019-02-04T19:15:00.292Z,100472.02
2019-02-04T19:17:31.421Z,100461.30
2019-02-04T19:20:02.478Z,100466.55
2019-02-04T19:22:36.478Z,100465.55
2019-02-04T19:25:13.973Z,100471.39
2019-02-04T19:27:50.016Z,100478.16
2019-02-04T19:30:47.321Z,100479.80
2019-02-04T19:33:22.104Z,100478.37
2019-02-04T19:35:58.106Z,100480.34
2019-02-04T19:38:39.186Z,100478.53
2019-02-04T19:41:23.889Z,100484.03
2019-02-04T19:44:05.964Z,100480.63
2019-02-04T19:46:43.173Z,100476.69
2019-02-04T19:49:22.351Z,100476.39
2019-02-04T19:52:06.687Z,100474.92
2019-02-04T19:54:39.525Z,100474.03
2019-02-04T19:57:10.955Z,100467.37
2019-02-04T19:59:48.537Z,100469.62
2019-02-04T20:02:21.430Z,100470.59
2019-02-04T20:04:55.913Z,100467.65
2019-02-04T20:07:32.374Z,100462.66
2019-02-04T20:10:05.664Z,100463.17
2019-02-04T20:12:39.961Z,100464.95
2019-02-04T20:15:21.587Z,100386.86
2019-02-04T20:17:54.749Z,100473.79
2019-02-04T20:20:31.502Z,100482.73
2019-02-04T20:23:07.076Z,100474.02
2019-02-04T20:25:37.348Z,100469.74
2019-02-04T20:28:42.103Z,100478.83
2019-02-04T20:31:23.644Z,100397.17
2019-02-04T20:34:05.719Z,100473.55
2019-02-04T20:36:38.081Z,100473.09
2019-02-04T20:39:17.073Z,100477.13
2019-02-04T20:41:51.462Z,100474.98
2019-02-04T20:44:25.074Z,100478.70
2019-02-04T20:47:05.612Z,100469.14
2019-02-04T20:49:43.357Z,100481.13
2019-02-04T20:55:56.606Z,100476.11
2019-02-04T20:58:27.260Z,100474.13
2019-02-04T21:01:09.918Z,100472.56
2019-02-04T21:03:42.191Z,100462.56
2019-02-04T21:06:13.187Z,100456.28
2019-02-04T21:08:46.011Z,100455.13
2019-02-04T21:11:16.801Z,100453.17
2019-02-04T21:13:52.450Z,100453.41
2019-02-04T21:16:23.640Z,100453.86
2019-02-04T21:18:55.962Z,100458.02
2019-02-04T21:21:27.792Z,100454.33
2019-02-04T21:23:59.560Z,100458.30
2019-02-04T21:26:40.749Z,100454.09
2019-02-04T21:29:11.076Z,100453.20
2019-02-04T21:31:41.036Z,100449.76
2019-02-04T21:34:11.196Z,100447.30
2019-02-04T21:36:46.961Z,100451.19
2019-02-04T21:39:17.253Z,100362.17
2019-02-04T21:41:47.290Z,100449.80
2019-02-04T21:44:18.563Z,100448.40
2019-02-04T21:46:48.518Z,100448.53
2019-02-04T21:49:18.921Z,100442.70
2019-02-04T21:51:49.285Z,100449.19
2019-02-04T21:54:19.525Z,100447.64
2019-02-04T21:56:49.874Z,100457.81
2019-02-04T21:59:20.813Z,100462.48
2019-02-04T22:01:51.499Z,100459.95
2019-02-04T22:04:21.803Z,100450.77
2019-02-04T22:06:52.300Z,100452.16
2019-02-04T22:09:23.437Z,100450.39
2019-02-04T22:11:54.684Z,100445.34
2019-02-04T22:14:37.597Z,100446.69
2019-02-04T22:17:08.851Z,100448.59
2019-02-04T22:19:38.800Z,100450.45
2019-02-04T22:22:09.403Z,100444.93
2019-02-04T22:24:39.441Z,100438.41
2019-02-04T22:27:09.550Z,100432.88
2019-02-04T22:29:40.138Z,100430.28
2019-02-04T22:32:12.934Z,100428.04
2019-02-04T22:34:45.627Z,100416.42
2019-02-04T22:37:15.018Z,100422.86
2019-02-04T22:39:45.143Z,100437.25
2019-02-04T22:42:15.968Z,100438.11
2019-02-04T22:44:46.949Z,100443.45
2019-02-04T22:47:17.935Z,100443.20
2019-02-04T22:49:48.623Z,100444.20
2019-02-04T22:52:18.944Z,100438.45
2019-02-04T22:54:49.181Z,100431.40
2019-02-04T22:57:20.383Z,100425.27
2019-02-04T22:59:50.692Z,100419.39
2019-02-04T23:02:26.360Z,100410.07
2019-02-04T23:04:57.068Z,100408.80
2019-02-04T23:07:27.522Z,100407.05
2019-02-04T23:09:58.063Z,100404.53
2019-02-04T23:12:29.534Z,100406.23
2019-02-04T23:15:01.144Z,100390.20
2019-02-04T23:17:34.215Z,100390.06
2019-02-04T23:20:09.174Z,100393.75
2019-02-04T23:22:44.119Z,100415.48
2019-02-04T23:25:14.408Z,100398.36
2019-02-04T23:27:44.513Z,100407.27
2019-02-04T23:30:15.038Z,100398.80
2019-02-04T23:32:45.881Z,100317.50
2019-02-04T23:35:16.212Z,100406.21
2019-02-04T23:37:46.466Z,100400.45
2019-02-04T23:40:18.352Z,100405.16
2019-02-04T23:42:48.864Z,100394.30
2019-02-04T23:45:19.242Z,100407.78
2019-02-04T23:47:49.610Z,100403.45
2019-02-04T23:50:20.160Z,100401.88
2019-02-04T23:52:50.555Z,100397.98
2019-02-04T23:55:21.054Z,100402.02
2019-02-04T23:57:51.183Z,100397.92
